Time;durP1;ratioP1;P1;durP2;ratioP2;P2;SDS_P1;SDS_P2;PMS_P1;PMS_P2;Temp;Humidity;BMP_temperature;BMP_pressure;BME280_temperature;BME280_humidity;BME280_pressure;Samples;Min_cycle;Max_cycle;Signal;HPM_P1;HPM_P2
2022/01/04 00:01:21;;;;;;;19.98;9.32;;;8.00;99.90;;;;;;5038249;28;20059;-93
2022/01/04 00:03:47;;;;;;;26.58;8.70;;;8.00;99.90;;;;;;5039724;28;20040;-93
2022/01/04 00:06:13;;;;;;;23.27;8.40;;;8.00;99.90;;;;;;5020325;28;20041;-93
2022/01/04 00:08:39;;;;;;;16.85;8.07;;;8.00;99.90;;;;;;4999153;28;20071;-93
2022/01/04 00:11:42;;;;;;;19.95;8.70;;;8.00;99.90;;;;;;5016617;28;20080;-94
2022/01/04 00:13:52;;;;;;;18.50;8.32;;;8.00;99.90;;;;;;5019076;28;20037;-94
2022/01/04 00:16:18;;;;;;;18.48;7.50;;;8.00;99.90;;;;;;5018293;28;20037;-93
2022/01/04 00:18:46;;;;;;;15.75;7.07;;;8.00;99.90;;;;;;5001400;28;20521;-93
2022/01/04 00:21:12;;;;;;;20.02;7.65;;;8.00;99.90;;;;;;5016550;28;20044;-91
2022/01/04 00:23:37;;;;;;;22.10;7.95;;;8.00;99.90;;;;;;5018232;28;20170;-92
2022/01/04 00:26:03;;;;;;;23.70;9.30;;;8.00;99.90;;;;;;5006653;28;20525;-93
2022/01/04 00:28:29;;;;;;;19.20;8.98;;;8.00;99.90;;;;;;5017639;28;20823;-92
2022/01/04 00:30:55;;;;;;;18.85;7.22;;;8.10;99.90;;;;;;5014944;28;20033;-93
2022/01/04 00:33:21;;;;;;;16.75;8.30;;;8.00;99.90;;;;;;5018453;28;20071;-93
2022/01/04 00:35:47;;;;;;;19.88;7.78;;;8.10;99.90;;;;;;5006540;28;20033;-93
2022/01/04 00:38:13;;;;;;;20.40;7.32;;;8.50;99.90;;;;;;4985167;28;20394;-93
2022/01/04 00:40:39;;;;;;;22.33;8.60;;;8.60;99.90;;;;;;5011971;28;20025;-93
2022/01/04 00:43:05;;;;;;;23.17;8.02;;;8.20;99.90;;;;;;5004557;28;20401;-93
2022/01/04 00:45:33;;;;;;;21.05;8.60;;;8.10;99.90;;;;;;5015451;28;20043;-93
2022/01/04 00:50:31;;;;;;;16.95;7.88;;;8.10;99.90;;;;;;5017740;28;20041;-93
2022/01/04 00:52:58;;;;;;;19.40;7.38;;;8.10;99.90;;;;;;5016017;28;20029;-92
2022/01/04 00:55:24;;;;;;;20.83;8.48;;;8.10;99.90;;;;;;5017497;28;20479;-94
2022/01/04 00:57:49;;;;;;;20.88;9.10;;;8.30;99.90;;;;;;5013291;28;20083;-93
2022/01/04 01:00:16;;;;;;;26.08;9.50;;;8.10;99.90;;;;;;4997333;28;20380;-94
2022/01/04 01:02:43;;;;;;;17.83;8.70;;;8.10;99.90;;;;;;5016959;28;20680;-93
2022/01/04 01:05:10;;;;;;;19.38;9.15;;;8.00;99.90;;;;;;5017595;28;20037;-93
2022/01/04 01:07:36;;;;;;;16.67;8.75;;;8.00;99.90;;;;;;4998857;28;20045;-93
2022/01/04 01:12:39;;;;;;;22.15;8.85;;;8.00;99.90;;;;;;5033953;28;20073;-94
2022/01/04 01:15:06;;;;;;;24.15;9.77;;;8.00;99.90;;;;;;5016618;28;20068;-93
2022/01/04 01:17:33;;;;;;;27.17;9.50;;;8.10;99.90;;;;;;5015745;28;20116;-93
2022/01/04 01:19:59;;;;;;;20.25;8.73;;;8.10;99.90;;;;;;5016350;28;20158;-93
2022/01/04 01:22:25;;;;;;;24.88;9.82;;;8.40;99.90;;;;;;4999445;28;20731;-93
2022/01/04 01:24:51;;;;;;;22.90;9.10;;;8.00;99.90;;;;;;5005858;28;20044;-92
2022/01/04 01:27:16;;;;;;;21.85;10.65;;;8.20;99.90;;;;;;4995557;28;20037;-93
2022/01/04 01:29:42;;;;;;;30.15;10.60;;;8.10;99.90;;;;;;5011502;28;20064;-94
2022/01/04 01:32:08;;;;;;;23.88;10.07;;;8.00;99.90;;;;;;5012425;28;20040;-94
2022/01/04 01:34:34;;;;;;;19.77;9.93;;;8.00;99.90;;;;;;5004817;28;20041;-92
2022/01/04 01:37:00;;;;;;;27.58;10.55;;;8.00;99.90;;;;;;5016891;28;20044;-93
2022/01/04 01:39:26;;;;;;;19.83;9.63;;;8.00;99.90;;;;;;5014782;28;20120;-93
2022/01/04 01:41:51;;;;;;;24.17;10.20;;;8.00;99.90;;;;;;5035745;28;20044;-92
2022/01/04 01:44:17;;;;;;;26.52;9.77;;;8.00;99.90;;;;;;5020411;28;20416;-91
2022/01/04 01:46:43;;;;;;;21.67;10.25;;;8.50;99.90;;;;;;5003589;28;20037;-92
2022/01/04 01:49:09;;;;;;;32.72;10.25;;;8.00;99.90;;;;;;5003870;28;20081;-92
2022/01/04 01:51:35;;;;;;;20.30;10.18;;;8.00;99.90;;;;;;4987216;28;20486;-93
2022/01/04 01:54:00;;;;;;;20.50;9.50;;;7.90;99.90;;;;;;5003581;28;20036;-93
2022/01/04 01:56:29;;;;;;;20.15;10.23;;;8.00;99.90;;;;;;5007297;28;20052;-93
2022/01/04 01:58:55;;;;;;;21.63;10.98;;;7.90;99.90;;;;;;5018946;28;20041;-93
2022/01/04 02:01:21;;;;;;;23.77;11.15;;;7.90;99.90;;;;;;5005350;28;20094;-93
2022/01/04 02:03:47;;;;;;;22.90;10.30;;;7.90;99.90;;;;;;5019768;28;20041;-93
2022/01/04 02:06:14;;;;;;;24.63;10.55;;;7.90;99.90;;;;;;5004103;28;20045;-93
2022/01/04 02:08:39;;;;;;;30.70;10.75;;;7.90;99.90;;;;;;4997708;28;20092;-93
2022/01/04 02:11:05;;;;;;;22.25;9.80;;;8.50;99.90;;;;;;5018607;28;20538;-95
2022/01/04 02:13:31;;;;;;;25.05;10.30;;;7.90;99.90;;;;;;5020685;28;20033;-94
2022/01/04 02:15:57;;;;;;;22.60;10.27;;;7.90;99.90;;;;;;5022342;28;20045;-94
2022/01/04 02:18:23;;;;;;;23.00;9.80;;;8.40;99.90;;;;;;5018764;28;20064;-92
2022/01/04 02:20:49;;;;;;;24.67;11.50;;;8.10;99.90;;;;;;5019690;28;20055;-93
2022/01/04 02:23:15;;;;;;;20.05;10.98;;;7.90;99.90;;;;;;4987467;28;20047;-92
2022/01/04 02:25:41;;;;;;;26.63;11.02;;;7.90;99.90;;;;;;5004929;28;20405;-93
2022/01/04 02:28:06;;;;;;;20.15;10.00;;;7.90;99.90;;;;;;5000341;28;20037;-91
2022/01/04 02:30:33;;;;;;;27.15;11.05;;;8.10;99.90;;;;;;5005948;28;20067;-91
2022/01/04 02:32:59;;;;;;;22.75;10.77;;;7.90;99.90;;;;;;5020755;28;20037;-93
2022/01/04 02:35:28;;;;;;;21.35;11.07;;;7.80;99.90;;;;;;4998511;28;20064;-91
2022/01/04 02:37:58;;;;;;;30.67;11.32;;;7.70;99.90;;;;;;5012732;28;20483;-93
2022/01/04 02:40:25;;;;;;;22.85;11.48;;;7.70;99.90;;;;;;5019501;28;20037;-93
2022/01/04 02:42:52;;;;;;;24.60;11.45;;;7.60;99.90;;;;;;5019008;28;20491;-91
2022/01/04 02:45:18;;;;;;;26.63;12.65;;;7.60;99.90;;;;;;5003090;28;21853;-92
2022/01/04 02:47:44;;;;;;;25.08;12.73;;;7.60;99.90;;;;;;5019332;28;20041;-93
2022/01/04 02:50:11;;;;;;;25.30;12.65;;;7.50;99.90;;;;;;5003304;28;20048;-91
2022/01/04 02:52:38;;;;;;;22.85;12.27;;;7.50;99.90;;;;;;4999652;28;20115;-91
2022/01/04 02:55:10;;;;;;;28.42;12.93;;;7.50;99.90;;;;;;5018324;28;20358;-92
2022/01/04 02:57:37;;;;;;;;;;;7.40;99.90;;;;;;5032761;28;20045;-92
2022/01/04 03:00:06;;;;;;;29.08;13.70;;;7.40;99.90;;;;;;5002619;28;19916;-91
2022/01/04 03:02:32;;;;;;;33.08;13.40;;;7.40;99.90;;;;;;4998714;28;20055;-90
2022/01/04 03:04:57;;;;;;;29.60;14.20;;;7.40;99.90;;;;;;5009091;28;20042;-93
2022/01/04 03:07:23;;;;;;;30.23;14.50;;;7.90;99.90;;;;;;5015254;28;20037;-92
2022/01/04 03:09:49;;;;;;;32.17;15.30;;;7.30;99.90;;;;;;4997118;28;20591;-92
2022/01/04 03:12:14;;;;;;;32.47;15.25;;;7.30;99.90;;;;;;5028941;28;20103;-92
2022/01/04 03:14:40;;;;;;;26.50;13.75;;;7.40;99.90;;;;;;4993841;28;20071;-92
2022/01/04 03:17:06;;;;;;;30.73;15.32;;;7.20;99.90;;;;;;5005636;28;20048;-92
2022/01/04 03:19:32;;;;;;;36.08;16.95;;;7.20;99.90;;;;;;5019808;28;20064;-92
2022/01/04 03:21:58;;;;;;;32.15;16.35;;;7.20;99.90;;;;;;5035060;28;20493;-92
2022/01/04 03:24:23;;;;;;;35.17;16.10;;;7.30;99.90;;;;;;5035934;28;20044;-91
2022/01/04 03:26:49;;;;;;;39.08;17.08;;;7.40;99.90;;;;;;5002205;28;20041;-92
2022/01/04 03:29:16;;;;;;;39.67;16.50;;;7.20;99.90;;;;;;5002583;28;20033;-92
2022/01/04 03:31:43;;;;;;;35.33;17.05;;;7.80;99.90;;;;;;5001677;28;20116;-92
2022/01/04 03:34:10;;;;;;;36.47;16.67;;;7.40;99.90;;;;;;5015266;28;20140;-93
2022/01/04 03:36:35;;;;;;;31.00;15.52;;;7.10;99.90;;;;;;5017329;28;20041;-92
2022/01/04 03:39:04;;;;;;;30.77;14.85;;;7.40;99.90;;;;;;4985263;28;20121;-93
2022/01/04 03:41:32;;;;;;;38.00;15.95;;;7.10;99.90;;;;;;5023452;28;20075;-92
2022/01/04 03:43:58;;;;;;;31.52;15.50;;;7.20;99.90;;;;;;5016005;28;20047;-91
2022/01/04 03:46:24;;;;;;;32.15;17.02;;;7.20;99.90;;;;;;5017165;28;20487;-92
2022/01/04 03:48:50;;;;;;;32.75;14.95;;;7.20;99.90;;;;;;5018340;28;20390;-92
2022/01/04 03:51:16;;;;;;;31.13;16.95;;;7.30;99.90;;;;;;5001122;28;20041;-92
2022/01/04 03:53:42;;;;;;;38.63;16.77;;;7.70;99.90;;;;;;5001565;28;20073;-92
2022/01/04 03:56:08;;;;;;;36.72;17.27;;;7.30;99.90;;;;;;4998582;28;20751;-92
2022/01/04 03:58:34;;;;;;;36.13;16.60;;;7.30;99.90;;;;;;5019302;28;20098;-92
2022/01/04 04:01:01;;;;;;;38.55;15.88;;;7.30;99.90;;;;;;4999918;28;20044;-92
2022/01/04 04:03:28;;;;;;;35.15;18.17;;;7.30;99.90;;;;;;4994177;28;20095;-92
2022/01/04 04:05:53;;;;;;;37.60;17.30;;;7.40;99.90;;;;;;5019494;28;20386;-93
2022/01/04 04:08:19;;;;;;;38.50;18.77;;;7.80;99.90;;;;;;4984151;28;20037;-93
2022/01/04 04:10:45;;;;;;;41.67;18.83;;;7.40;99.90;;;;;;4984339;28;20088;-93
2022/01/04 04:13:11;;;;;;;42.38;19.15;;;7.40;99.90;;;;;;5006796;28;20175;-95
2022/01/04 04:15:40;;;;;;;39.35;19.83;;;7.40;99.90;;;;;;5047202;28;20434;-92
2022/01/04 04:18:09;;;;;;;36.80;18.63;;;7.70;99.90;;;;;;5041630;28;20047;-92
2022/01/04 04:20:37;;;;;;;37.85;19.55;;;7.50;99.90;;;;;;5035902;28;20029;-91
2022/01/04 04:23:04;;;;;;;38.70;19.75;;;7.40;99.90;;;;;;5042754;28;20048;-91
2022/01/04 04:25:30;;;;;;;42.15;20.42;;;7.40;99.90;;;;;;5026705;28;20059;-92
2022/01/04 04:27:56;;;;;;;45.75;19.30;;;7.60;99.90;;;;;;5045075;28;20045;-93
2022/01/04 04:30:22;;;;;;;39.05;19.83;;;7.40;99.90;;;;;;5019501;28;20060;-92
2022/01/04 04:32:47;;;;;;;40.83;19.23;;;7.70;99.90;;;;;;5001614;28;20041;-94
2022/01/04 04:35:14;;;;;;;37.92;20.02;;;7.40;99.90;;;;;;4984225;28;20038;-94
2022/01/04 04:37:39;;;;;;;39.20;20.15;;;7.30;99.90;;;;;;5003089;28;20453;-93
2022/01/04 04:40:06;;;;;;;43.85;20.17;;;7.40;99.90;;;;;;4984492;28;20109;-92
2022/01/04 04:42:32;;;;;;;38.05;18.50;;;7.40;99.90;;;;;;5018609;28;20075;-92
2022/01/04 04:44:58;;;;;;;45.83;21.48;;;7.40;99.90;;;;;;5017934;28;20094;-93
2022/01/04 04:47:24;;;;;;;40.50;20.40;;;7.80;99.90;;;;;;4981965;28;20033;-93
2022/01/04 04:49:49;;;;;;;46.85;21.48;;;8.20;99.90;;;;;;5001211;28;20083;-94
2022/01/04 04:52:15;;;;;;;39.05;19.80;;;7.30;99.90;;;;;;5034435;28;20041;-92
2022/01/04 04:54:41;;;;;;;41.92;17.90;;;7.40;99.90;;;;;;5001425;28;20654;-93
2022/01/04 04:57:06;;;;;;;39.13;18.58;;;7.40;99.90;;;;;;5001648;28;20045;-93
2022/01/04 04:59:32;;;;;;;46.08;18.05;;;7.40;99.90;;;;;;5034661;28;20040;-92
2022/01/04 05:01:58;;;;;;;36.13;18.80;;;7.40;99.90;;;;;;5001315;28;20045;-92
2022/01/04 05:04:24;;;;;;;38.58;19.33;;;8.10;99.90;;;;;;4984158;28;20077;-92
2022/01/04 05:06:50;;;;;;;32.50;18.27;;;7.40;99.90;;;;;;5034390;28;20044;-92
2022/01/04 05:09:15;;;;;;;38.05;18.83;;;7.40;99.90;;;;;;5005531;28;20037;-91
2022/01/04 05:11:41;;;;;;;40.80;19.02;;;7.40;99.90;;;;;;5006152;28;20037;-93
2022/01/04 05:14:07;;;;;;;38.22;19.50;;;7.40;99.90;;;;;;4986588;28;20410;-93
2022/01/04 05:16:32;;;;;;;41.38;18.83;;;7.40;99.90;;;;;;4985303;28;20030;-92
2022/01/04 05:18:58;;;;;;;37.00;18.02;;;7.60;99.90;;;;;;4999456;28;20061;-92
2022/01/04 05:21:24;;;;;;;39.72;16.67;;;7.30;99.90;;;;;;4981604;28;20046;-93
2022/01/04 05:23:50;;;;;;;33.95;17.73;;;7.30;99.90;;;;;;5014047;28;20041;-93
2022/01/04 05:26:16;;;;;;;31.05;17.45;;;7.40;99.90;;;;;;4984115;28;20464;-93
2022/01/04 05:28:45;;;;;;;33.35;17.45;;;7.90;99.90;;;;;;4998910;28;20084;-93
2022/01/04 05:31:11;;;;;;;35.67;18.30;;;7.30;99.90;;;;;;5001821;28;20045;-92
2022/01/04 05:33:37;;;;;;;32.20;16.90;;;7.40;99.90;;;;;;4986039;28;20038;-92
2022/01/04 05:36:03;;;;;;;34.38;16.95;;;7.50;99.90;;;;;;5035092;28;20102;-93
2022/01/04 05:38:29;;;;;;;31.33;17.45;;;7.40;99.90;;;;;;5015827;28;20108;-92
2022/01/04 05:40:55;;;;;;;32.42;15.75;;;7.40;99.90;;;;;;4985242;28;20030;-94
2022/01/04 05:43:21;;;;;;;28.33;16.02;;;7.40;99.90;;;;;;5002425;28;20049;-93
2022/01/04 05:45:47;;;;;;;27.42;15.68;;;8.20;99.90;;;;;;5015460;28;20033;-90
2022/01/04 05:48:13;;;;;;;27.60;13.82;;;7.40;99.90;;;;;;5011448;28;20034;-91
2022/01/04 05:50:39;;;;;;;26.83;14.73;;;7.40;99.90;;;;;;4996253;28;20040;-91
2022/01/04 05:53:06;;;;;;;34.72;15.00;;;7.40;99.90;;;;;;4974975;28;20049;-88
2022/01/04 05:55:32;;;;;;;28.10;14.88;;;7.40;99.90;;;;;;5015342;28;20034;-93
2022/01/04 05:57:58;;;;;;;29.55;14.10;;;7.90;99.90;;;;;;5002033;28;20501;-93
2022/01/04 06:00:23;;;;;;;34.08;15.45;;;7.80;99.90;;;;;;5015929;28;20070;-94
2022/01/04 06:02:49;;;;;;;27.80;14.82;;;7.50;99.90;;;;;;5015091;28;20444;-93
2022/01/04 06:05:15;;;;;;;31.27;16.40;;;7.60;99.90;;;;;;5012853;28;20045;-93
2022/01/04 06:07:40;;;;;;;28.88;15.43;;;7.40;99.90;;;;;;4983388;28;20091;-92
2022/01/04 06:10:08;;;;;;;29.80;16.52;;;7.40;99.90;;;;;;5015861;28;20383;-91
2022/01/04 06:15:09;;;;;;;32.00;16.88;;;7.50;99.90;;;;;;5013173;28;20048;-94
2022/01/04 06:17:38;;;;;;;35.58;16.52;;;7.50;99.90;;;;;;5017700;28;20029;-93
2022/01/04 06:20:09;;;;;;;32.72;16.98;;;7.40;99.90;;;;;;5033185;28;20126;-93
2022/01/04 06:22:37;;;;;;;36.38;17.33;;;7.40;99.90;;;;;;5018291;28;20056;-93
2022/01/04 06:25:04;;;;;;;37.63;17.02;;;7.40;99.90;;;;;;5017640;28;20474;-93
2022/01/04 06:27:30;;;;;;;30.05;17.02;;;7.40;99.90;;;;;;5013966;28;20076;-93
2022/01/04 06:29:57;;;;;;;30.70;15.52;;;7.40;99.90;;;;;;4998772;28;20034;-93
2022/01/04 06:32:23;;;;;;;34.20;17.13;;;7.50;99.90;;;;;;4998476;28;20117;-92
2022/01/04 06:34:49;;;;;;;40.00;17.40;;;7.40;99.90;;;;;;4984272;28;20064;-94
2022/01/04 06:37:16;;;;;;;37.38;17.45;;;7.70;99.90;;;;;;5001330;28;20099;-93
2022/01/04 06:39:43;;;;;;;35.28;18.05;;;7.50;99.90;;;;;;5015982;28;20065;-93
2022/01/04 06:42:10;;;;;;;34.80;16.13;;;7.50;99.90;;;;;;5001135;28;20033;-92
2022/01/04 06:44:36;;;;;;;31.08;16.55;;;8.10;99.90;;;;;;5016371;28;20136;-93
2022/01/04 06:47:02;;;;;;;29.73;15.93;;;7.60;99.90;;;;;;5034435;28;20064;-94
2022/01/04 06:49:28;;;;;;;34.15;17.02;;;7.50;99.90;;;;;;5016225;28;20069;-93
2022/01/04 06:51:54;;;;;;;35.42;16.48;;;7.50;99.90;;;;;;5000745;28;20068;-93
2022/01/04 06:54:21;;;;;;;34.70;15.73;;;7.90;99.90;;;;;;4981667;28;20129;-92
2022/01/04 06:56:48;;;;;;;36.83;17.30;;;7.80;99.90;;;;;;5017522;28;20037;-93
2022/01/04 06:59:14;;;;;;;32.30;16.63;;;7.50;99.90;;;;;;5010927;28;20144;-94
2022/01/04 07:01:40;;;;;;;28.00;15.15;;;7.50;99.90;;;;;;4998182;28;20046;-93
2022/01/04 07:04:06;;;;;;;35.70;17.70;;;7.60;99.90;;;;;;4997784;28;20045;-93
2022/01/04 07:06:32;;;;;;;33.00;17.00;;;7.60;99.90;;;;;;5031809;28;20064;-94
2022/01/04 07:08:58;;;;;;;30.98;16.23;;;7.50;99.90;;;;;;5013890;28;20403;-93
2022/01/04 07:11:24;;;;;;;32.30;17.77;;;7.50;99.90;;;;;;5011866;28;20060;-93
2022/01/04 07:13:50;;;;;;;35.40;18.85;;;7.60;99.90;;;;;;5010166;28;20034;-92
2022/01/04 07:16:16;;;;;;;35.72;18.48;;;8.00;99.90;;;;;;5026869;28;20048;-93
2022/01/04 07:18:46;;;;;;;35.03;17.65;;;7.50;99.90;;;;;;5016385;28;20132;-94
2022/01/04 07:21:13;;;;;;;37.97;18.77;;;7.50;99.90;;;;;;5013933;28;20401;-94
2022/01/04 07:23:39;;;;;;;38.85;18.13;;;7.70;99.90;;;;;;4981724;28;20069;-93
2022/01/04 07:26:05;;;;;;;36.38;17.77;;;7.40;99.90;;;;;;5016948;28;20060;-93
2022/01/04 07:28:31;;;;;;;34.10;18.42;;;7.50;99.90;;;;;;5000274;28;20034;-93
2022/01/04 07:30:57;;;;;;;34.85;18.45;;;7.60;99.90;;;;;;5015231;28;20454;-95
2022/01/04 07:33:23;;;;;;;41.92;19.60;;;7.40;99.90;;;;;;5009611;28;20155;-95
2022/01/04 07:35:48;;;;;;;49.13;19.63;;;7.40;99.90;;;;;;5016357;28;20034;-94
2022/01/04 07:38:14;;;;;;;40.30;19.60;;;7.40;99.90;;;;;;5017186;28;20045;-94
2022/01/04 07:40:40;;;;;;;37.75;19.95;;;7.50;99.90;;;;;;4981180;28;20037;-95
2022/01/04 07:43:06;;;;;;;41.80;20.55;;;7.50;99.90;;;;;;5014101;28;20040;-95
2022/01/04 07:45:33;;;;;;;43.15;21.35;;;7.40;99.90;;;;;;5017426;28;20033;-94
2022/01/04 07:48:00;;;;;;;36.63;20.42;;;7.40;99.90;;;;;;4983836;28;20037;-94
2022/01/04 07:50:26;;;;;;;41.53;20.02;;;7.40;99.90;;;;;;5016615;28;20087;-94
2022/01/04 07:52:53;;;;;;;43.65;19.50;;;7.40;99.90;;;;;;5032697;28;20041;-93
2022/01/04 07:55:19;;;;;;;35.28;19.02;;;7.40;99.90;;;;;;5007021;28;20022;-94
2022/01/04 07:57:45;;;;;;;43.63;19.63;;;7.40;99.90;;;;;;5017650;28;20041;-94
2022/01/04 08:00:15;;;;;;;34.88;20.05;;;7.90;99.90;;;;;;4980934;28;20030;-94
2022/01/04 08:02:42;;;;;;;43.08;20.90;;;7.40;99.90;;;;;;5014988;28;20109;-95
2022/01/04 08:05:08;;;;;;;48.08;21.38;;;7.40;99.90;;;;;;5000680;28;20063;-93
2022/01/04 08:07:34;;;;;;;42.53;21.80;;;7.40;99.90;;;;;;5015435;28;20491;-93
2022/01/04 08:10:00;;;;;;;46.33;21.02;;;7.60;99.90;;;;;;5015053;28;20044;-94
2022/01/04 08:12:26;;;;;;;44.85;21.38;;;7.40;99.90;;;;;;4984447;28;20042;-94
2022/01/04 08:14:52;;;;;;;44.90;21.88;;;7.70;99.90;;;;;;5013602;28;20037;-93
2022/01/04 08:17:17;;;;;;;38.58;21.77;;;7.40;99.90;;;;;;4983849;28;20067;-95
2022/01/04 08:19:43;;;;;;;41.53;21.63;;;7.30;99.90;;;;;;5020123;28;20073;-94
2022/01/04 08:22:09;;;;;;;44.83;21.95;;;8.00;99.90;;;;;;5038141;28;20041;-92
2022/01/04 08:24:35;;;;;;;45.45;20.83;;;7.30;99.90;;;;;;5031964;28;20091;-94
2022/01/04 08:27:01;;;;;;;47.17;21.55;;;7.80;99.90;;;;;;5000180;28;20041;-94
2022/01/04 08:29:27;;;;;;;50.58;23.05;;;7.30;99.90;;;;;;4998295;28;20045;-94
2022/01/04 08:31:53;;;;;;;47.05;21.00;;;7.30;99.90;;;;;;5012007;28;20037;-94
2022/01/04 08:34:19;;;;;;;45.03;20.08;;;8.00;99.90;;;;;;5014572;28;20050;-93
2022/01/04 08:36:45;;;;;;;47.30;21.02;;;7.40;99.90;;;;;;4998476;28;20093;-94
2022/01/04 08:39:14;;;;;;;41.40;19.52;;;7.30;99.90;;;;;;5000393;28;20121;-93
2022/01/04 08:41:45;;;;;;;43.88;21.38;;;7.30;99.90;;;;;;4996948;28;20505;-94
2022/01/04 08:44:11;;;;;;;40.25;21.55;;;7.30;99.90;;;;;;5031349;28;20033;-93
2022/01/04 08:46:39;;;;;;;44.97;21.63;;;7.30;99.90;;;;;;5036399;28;20053;-94
2022/01/04 08:49:08;;;;;;;40.75;20.92;;;7.30;99.90;;;;;;5014014;28;20101;-93
2022/01/04 08:51:37;;;;;;;40.92;19.73;;;7.20;99.90;;;;;;5005205;28;20046;-93
2022/01/04 08:54:04;;;;;;;42.60;21.35;;;7.40;99.90;;;;;;4993488;28;20038;-94
2022/01/04 08:56:31;;;;;;;42.47;20.45;;;7.30;99.90;;;;;;5032235;28;20040;-93
2022/01/04 08:58:57;;;;;;;40.85;19.92;;;7.30;99.90;;;;;;5031551;28;20041;-94
2022/01/04 09:01:22;;;;;;;37.53;19.85;;;7.30;99.90;;;;;;4999007;28;20091;-94
2022/01/04 09:03:48;;;;;;;38.63;19.20;;;7.60;99.90;;;;;;4995072;28;20041;-94
2022/01/04 09:06:15;;;;;;;44.45;21.92;;;7.30;99.90;;;;;;4997558;28;20037;-94
2022/01/04 09:08:42;;;;;;;42.85;20.70;;;7.60;99.90;;;;;;5020461;28;20037;-94
2022/01/04 09:11:08;;;;;;;44.15;19.58;;;7.30;99.90;;;;;;5033539;28;20041;-93
2022/01/04 09:13:38;;;;;;;41.60;19.80;;;7.40;99.90;;;;;;4993630;28;20031;-94
2022/01/04 09:18:48;;;;;;;39.08;19.00;;;7.30;99.90;;;;;;5032294;28;20053;-94
2022/01/04 09:21:20;;;;;;;40.28;20.73;;;7.40;99.90;;;;;;5032199;28;20052;-95
2022/01/04 09:23:48;;;;;;;39.75;18.52;;;7.30;99.90;;;;;;5006744;28;20045;-94
2022/01/04 09:26:15;;;;;;;34.35;18.77;;;7.30;99.90;;;;;;5007189;28;20060;-94
2022/01/04 09:28:42;;;;;;;35.63;17.80;;;7.60;99.90;;;;;;4977240;28;20045;-95
2022/01/04 09:31:08;;;;;;;37.83;19.00;;;7.30;99.90;;;;;;5037693;28;20044;-95
2022/01/04 09:33:35;;;;;;;39.58;18.40;;;7.30;99.90;;;;;;5006923;28;20041;-94
2022/01/04 09:36:00;;;;;;;45.40;19.92;;;7.30;99.90;;;;;;5009692;28;20490;-94
2022/01/04 09:38:26;;;;;;;36.05;19.35;;;7.40;99.90;;;;;;5010935;28;20037;-93
2022/01/04 09:40:54;;;;;;;42.63;19.70;;;7.30;99.90;;;;;;4981930;28;20037;-93
2022/01/04 09:43:21;;;;;;;36.75;20.15;;;7.30;99.90;;;;;;4991507;28;20401;-91
2022/01/04 09:45:48;;;;;;;38.00;19.75;;;7.40;99.90;;;;;;5015894;28;20416;-89
2022/01/04 09:48:14;;;;;;;52.45;21.40;;;7.40;99.90;;;;;;4973294;28;20041;-90
2022/01/04 09:50:41;;;;;;;64.60;22.25;;;7.40;99.90;;;;;;5006671;28;20184;-87
2022/01/04 09:53:09;;;;;;;17.40;8.68;;;7.30;99.90;;;;;;4998164;28;20103;-88
2022/01/04 09:55:42;;;;;;;12.63;5.88;;;7.20;99.90;;;;;;4985598;28;20069;-89
2022/01/04 09:58:08;;;;;;;13.90;7.72;;;7.00;99.90;;;;;;5012407;28;20138;-88
2022/01/04 10:00:33;;;;;;;19.77;10.70;;;6.90;99.90;;;;;;4995438;28;20037;-89
2022/01/04 10:03:32;;;;;;;26.55;11.50;;;6.90;99.90;;;;;;5002484;28;20405;-89
2022/01/04 10:06:05;;;;;;;20.63;10.75;;;6.90;99.90;;;;;;4965415;28;20049;-90
2022/01/04 10:08:31;;;;;;;16.33;9.68;;;6.90;99.90;;;;;;5026560;28;20434;-89
2022/01/04 10:11:03;;;;;;;13.30;7.43;;;6.90;99.90;;;;;;5007427;28;20061;-89
2022/01/04 10:13:30;;;;;;;10.10;6.10;;;6.80;99.90;;;;;;5026552;28;20128;-90
2022/01/04 10:15:55;;;;;;;13.07;6.28;;;6.80;99.90;;;;;;5007654;28;20067;-89
2022/01/04 10:18:28;;;;;;;8.32;4.70;;;6.90;99.90;;;;;;4996199;28;20065;-89
2022/01/04 10:21:02;;;;;;;8.13;4.28;;;6.80;99.90;;;;;;5022173;28;20175;-89
2022/01/04 10:23:29;;;;;;;6.60;4.00;;;6.80;99.90;;;;;;5009643;28;21179;-88
2022/01/04 10:26:07;;;;;;;5.82;3.85;;;6.80;99.90;;;;;;5024399;28;20045;-89
2022/01/04 10:28:41;;;;;;;9.88;4.65;;;6.70;99.90;;;;;;5025075;28;20044;-89
2022/01/04 10:31:10;;;;;;;11.77;5.13;;;6.70;99.90;;;;;;5012122;28;20037;-89
2022/01/04 10:33:36;;;;;;;10.02;5.05;;;6.80;99.90;;;;;;5008257;28;20032;-90
2022/01/04 10:36:13;;;;;;;11.23;5.32;;;6.70;99.90;;;;;;4988414;28;20033;-87
2022/01/04 10:38:41;;;;;;;13.60;6.40;;;6.70;99.90;;;;;;5026546;28;20033;-90
2022/01/04 10:41:10;;;;;;;15.38;7.15;;;6.80;99.90;;;;;;5008627;28;20041;-90
2022/01/04 10:43:45;;;;;;;18.25;7.47;;;6.80;99.90;;;;;;5028734;28;20037;-91
2022/01/04 10:46:14;;;;;;;15.10;7.35;;;6.80;99.90;;;;;;5012688;28;20327;-89
2022/01/04 10:48:43;;;;;;;16.45;7.18;;;6.80;99.90;;;;;;5010999;28;20040;-88
2022/01/04 10:51:11;;;;;;;18.45;7.88;;;6.80;99.90;;;;;;5011854;28;20079;-89
2022/01/04 10:53:38;;;;;;;16.70;6.90;;;6.80;99.90;;;;;;5012546;28;20037;-89
2022/01/04 10:56:07;;;;;;;9.43;5.20;;;6.80;99.90;;;;;;5023665;28;20044;-85
2022/01/04 10:58:45;;;;;;;10.32;4.40;;;6.70;99.90;;;;;;5007631;28;20128;-86
2022/01/04 11:01:22;;;;;;;8.90;3.85;;;6.70;99.90;;;;;;5023461;28;20044;-87
2022/01/04 11:03:54;;;;;;;8.02;3.78;;;6.70;99.90;;;;;;5006508;28;20120;-86
2022/01/04 11:06:24;;;;;;;10.52;4.38;;;6.60;99.90;;;;;;5022872;28;20067;-85
2022/01/04 11:08:50;;;;;;;10.98;4.85;;;6.60;99.90;;;;;;5022705;28;20041;-85
2022/01/04 11:11:16;;;;;;;5.95;3.55;;;6.50;99.90;;;;;;4984999;28;20088;-85
2022/01/04 11:13:42;;;;;;;7.43;2.95;;;6.60;99.90;;;;;;5006045;28;20474;-86
2022/01/04 11:16:08;;;;;;;13.15;3.13;;;6.50;99.90;;;;;;5025343;28;20037;-91
2022/01/04 11:18:36;;;;;;;9.48;3.00;;;6.50;99.90;;;;;;5009326;28;20064;-93
2022/01/04 11:21:04;;;;;;;6.10;2.15;;;6.40;99.90;;;;;;5026347;28;20045;-93
2022/01/04 11:23:33;;;;;;;6.25;2.03;;;6.40;99.90;;;;;;5009761;28;20098;-92
2022/01/04 11:26:00;;;;;;;3.80;1.65;;;6.30;99.90;;;;;;5026500;28;20044;-92
2022/01/04 11:28:27;;;;;;;6.15;1.58;;;6.30;99.90;;;;;;5010425;28;20127;-92
2022/01/04 11:31:14;;;;;;;5.53;2.00;;;6.20;99.90;;;;;;4977334;28;20064;-93
2022/01/04 11:34:06;;;;;;;2.72;1.60;;;6.20;99.90;;;;;;5026790;28;20111;-94
2022/01/04 11:36:43;;;;;;;4.20;2.00;;;6.10;99.90;;;;;;4996582;28;20083;-94
2022/01/04 11:39:33;;;;;;;5.57;2.05;;;6.10;99.90;;;;;;5011401;28;20037;-95
2022/01/04 11:42:05;;;;;;;7.03;2.25;;;6.20;99.90;;;;;;5010527;28;20064;-95
2022/01/04 11:44:31;;;;;;;3.55;2.25;;;6.20;99.90;;;;;;5008450;28;20120;-94
2022/01/04 11:47:04;;;;;;;7.10;1.88;;;6.30;99.90;;;;;;5011854;28;20041;-95
2022/01/04 11:49:30;;;;;;;3.72;2.08;;;6.40;99.90;;;;;;4997306;28;20075;-96
2022/01/04 11:51:56;;;;;;;7.20;2.28;;;6.40;99.90;;;;;;5010986;28;20032;-95
2022/01/04 11:54:26;;;;;;;3.63;2.08;;;6.30;99.90;;;;;;4996180;28;20067;-94
2022/01/04 11:57:16;;;;;;;6.05;2.45;;;6.50;99.90;;;;;;5009035;28;20037;-90
2022/01/04 11:59:45;;;;;;;3.30;2.15;;;6.00;99.90;;;;;;5023021;28;20037;-90
2022/01/04 12:02:39;;;;;;;3.40;1.75;;;5.70;99.90;;;;;;5023114;28;20068;-89
2022/01/04 12:05:14;;;;;;;8.85;1.80;;;5.60;99.90;;;;;;5005389;28;20052;-88
2022/01/04 12:07:44;;;;;;;3.83;1.75;;;5.40;99.90;;;;;;5019202;28;20044;-94
2022/01/04 12:10:22;;;;;;;4.93;1.38;;;5.30;99.90;;;;;;4997950;28;20385;-95
2022/01/04 12:13:11;;;;;;;3.78;1.45;;;5.30;99.90;;;;;;5007387;28;20036;-96
2022/01/04 12:15:36;;;;;;;1.83;1.20;;;5.20;99.90;;;;;;5022325;28;20033;-95
2022/01/04 12:18:31;;;;;;;3.35;1.15;;;5.20;99.90;;;;;;5005781;28;20033;-95
2022/01/04 12:21:00;;;;;;;4.10;1.25;;;5.20;99.90;;;;;;5000445;28;20506;-91
2022/01/04 12:23:46;;;;;;;3.05;1.02;;;5.20;99.90;;;;;;5004769;28;20044;-93
2022/01/04 12:26:12;;;;;;;2.85;1.58;;;5.20;99.90;;;;;;4995026;28;20483;-93
2022/01/04 12:28:43;;;;;;;2.63;1.00;;;5.20;99.90;;;;;;5004050;28;20044;-92
2022/01/04 12:33:45;;;;;;;2.05;1.00;;;5.10;99.90;;;;;;5022341;28;20063;-93
2022/01/04 12:36:34;;;;;;;2.88;1.48;;;5.60;99.90;;;;;;5005274;28;20037;-95
2022/01/04 12:39:09;;;;;;;3.85;1.15;;;5.10;99.90;;;;;;5003896;28;20033;-92
2022/01/04 12:41:37;;;;;;;2.00;1.30;;;5.20;99.90;;;;;;5021557;28;20114;-94
2022/01/04 12:44:04;;;;;;;4.10;1.67;;;5.20;99.90;;;;;;4985792;28;20045;-93
2022/01/04 12:46:32;;;;;;;5.28;1.75;;;5.20;99.90;;;;;;5004997;28;20048;-95
2022/01/04 12:49:06;;;;;;;7.35;2.17;;;5.20;99.90;;;;;;5003753;28;20461;-95
2022/01/04 12:52:01;;;;;;;4.10;2.20;;;5.10;99.90;;;;;;5022974;28;20037;-90
2022/01/04 12:54:30;;;;;;;5.03;1.70;;;5.10;99.90;;;;;;5027086;28;20056;-90
2022/01/04 12:56:59;;;;;;;3.75;1.45;;;5.00;99.90;;;;;;5019946;28;20116;-91
2022/01/04 12:59:25;;;;;;;3.17;1.33;;;4.90;99.90;;;;;;4999594;28;20039;-91